Time;durP1;ratioP1;P1;durP2;ratioP2;P2;SDS_P1;SDS_P2;PMS_P1;PMS_P2;Temp;Humidity;BMP_temperature;BMP_pressure;BME280_temperature;BME280_humidity;BME280_pressure;Samples;Min_cycle;Max_cycle;Signal;HPM_P1;HPM_P2
2022/04/07 00:02:16;;;;;;;4.78;0.47;;;;;;;9.28;84.32;99167.72;5096239;27;97919;-34
2022/04/07 00:04:41;;;;;;;0.32;0.20;;;;;;;9.33;84.35;99184.41;5095382;27;120858;-34
2022/04/07 00:07:07;;;;;;;13.50;1.50;;;;;;;9.32;84.33;99165.63;5094997;27;123318;-34
2022/04/07 00:09:32;;;;;;;2.08;0.40;;;;;;;9.32;84.08;99169.19;5095674;27;111550;-34
2022/04/07 00:11:58;;;;;;;6.90;0.90;;;;;;;9.36;84.28;99176.03;5095839;27;97306;-34
2022/04/07 00:14:23;;;;;;;0.25;0.20;;;;;;;9.33;83.96;99164.63;5096203;27;99484;-34
2022/04/07 00:16:48;;;;;;;12.73;1.10;;;;;;;9.31;84.43;99156.66;5095823;27;96483;-34
2022/04/07 00:19:14;;;;;;;6.13;0.57;;;;;;;9.37;83.85;99166.09;5094931;27;122276;-34
2022/04/07 00:21:42;;;;;;;3.95;0.80;;;;;;;9.38;84.06;99158.84;5095181;27;98341;-34
2022/04/07 00:24:07;;;;;;;3.33;0.45;;;;;;;9.35;83.83;99157.28;5095916;27;97837;-34
2022/04/07 00:26:34;;;;;;;1.45;0.32;;;;;;;9.31;83.88;99156.66;5096245;27;96473;-34
2022/04/07 00:28:59;;;;;;;2.53;0.88;;;;;;;9.33;83.68;99140.31;5077065;27;96780;-34
2022/04/07 00:31:25;;;;;;;7.30;0.73;;;;;;;9.36;83.77;99149.00;5095612;27;97174;-34
2022/04/07 00:33:50;;;;;;;0.65;0.40;;;;;;;9.34;83.95;99118.59;5095796;27;97800;-34
2022/04/07 00:36:16;;;;;;;3.75;1.02;;;;;;;9.40;83.42;99143.38;5095053;27;114375;-34
2022/04/07 00:38:41;;;;;;;0.63;0.30;;;;;;;9.33;83.74;99141.19;5094418;27;122637;-34
2022/04/07 00:41:06;;;;;;;5.28;1.60;;;;;;;9.34;83.87;99128.50;5094726;27;126376;-34
2022/04/07 00:43:34;;;;;;;5.18;1.20;;;;;;;9.31;84.00;99132.34;5094602;27;126085;-34
2022/04/07 00:46:01;;;;;;;5.70;1.02;;;;;;;9.32;84.09;99123.25;5094802;27;96680;-34
2022/04/07 00:48:27;;;;;;;5.90;1.38;;;;;;;9.27;84.19;99105.69;5076828;27;96578;-34
2022/04/07 00:50:54;;;;;;;2.15;0.52;;;;;;;9.30;84.28;99122.53;5076511;27;100992;-34
2022/04/07 00:53:20;;;;;;;5.65;0.95;;;;;;;9.22;84.49;99102.53;5076246;27;100683;-34
2022/04/07 00:55:48;;;;;;;7.35;1.40;;;;;;;9.24;84.62;99116.78;5095640;27;96538;-34
2022/04/07 00:58:14;;;;;;;6.13;0.73;;;;;;;9.20;85.11;99104.50;5076888;27;96858;-34
2022/04/07 01:00:40;;;;;;;1.33;0.57;;;;;;;9.20;85.63;99096.41;5076274;27;100729;-34
2022/04/07 01:03:05;;;;;;;6.13;0.55;;;;;;;9.19;85.48;99092.00;5095480;27;105720;-34
2022/04/07 01:05:31;;;;;;;3.40;0.88;;;;;;;9.12;86.39;99095.19;5095019;27;97966;-34
2022/04/07 01:07:56;;;;;;;8.07;0.93;;;;;;;9.08;85.94;99088.38;5094990;27;96638;-34
2022/04/07 01:10:23;;;;;;;1.73;0.75;;;;;;;9.08;86.33;99068.56;5094256;27;113512;-34
2022/04/07 01:12:48;;;;;;;3.60;1.05;;;;;;;9.07;86.40;99067.72;5076161;27;101283;-33
2022/04/07 01:15:13;;;;;;;2.95;0.25;;;;;;;8.97;87.05;99053.28;5094088;27;119665;-34
2022/04/07 01:17:39;;;;;;;2.75;0.75;;;;;;;9.02;86.40;99061.00;5094083;27;115840;-34
2022/04/07 01:20:06;;;;;;;1.70;0.85;;;;;;;9.04;86.24;99040.13;5095055;27;97895;-34
2022/04/07 01:22:35;;;;;;;3.50;0.90;;;;;;;9.00;86.43;99035.97;5076194;27;100838;-34
2022/04/07 01:25:00;;;;;;;8.70;1.10;;;;;;;9.03;86.44;99046.50;5095000;27;96573;-34
2022/04/07 01:27:25;;;;;;;2.75;1.20;;;;;;;9.05;86.43;99025.63;5095358;27;96725;-34
2022/04/07 01:29:54;;;;;;;1.70;0.80;;;;;;;9.00;86.03;99003.56;5094723;27;97833;-34
2022/04/07 01:32:22;;;;;;;6.88;0.90;;;;;;;9.08;86.13;99017.25;5076119;27;100826;-33
2022/04/07 01:34:48;;;;;;;9.65;1.60;;;;;;;9.08;85.78;98998.34;5075675;27;96543;-34
2022/04/07 01:37:14;;;;;;;0.60;0.43;;;;;;;9.11;85.76;99003.50;5076232;27;96932;-34
2022/04/07 01:39:41;;;;;;;4.00;0.82;;;;;;;9.10;85.51;98999.09;5075944;27;101002;-33
2022/04/07 01:42:13;;;;;;;1.00;0.93;;;;;;;9.12;85.32;98989.00;5094750;27;97897;-34
2022/04/07 01:44:42;;;;;;;4.45;1.10;;;;;;;9.19;85.30;98989.34;5076023;27;96594;-34
2022/04/07 01:47:12;;;;;;;3.72;1.05;;;;;;;9.19;85.09;98983.94;5076027;27;96955;-34
2022/04/07 01:49:40;;;;;;;8.98;0.95;;;;;;;9.21;85.02;98971.16;5075378;27;100886;-34
2022/04/07 01:52:07;;;;;;;7.90;1.17;;;;;;;9.11;85.05;98963.00;5058816;27;99797;-33
2022/04/07 01:54:34;;;;;;;7.30;0.63;;;;;;;9.12;85.71;98967.41;5058917;27;96875;-33
2022/04/07 01:57:00;;;;;;;3.45;0.55;;;;;;;9.10;85.81;98954.03;5075509;27;96758;-34
2022/04/07 01:59:36;;;;;;;3.50;0.63;;;;;;;9.16;85.65;98958.06;5075178;27;101027;-34
2022/04/07 02:02:01;;;;;;;3.58;0.98;;;;;;;9.09;85.50;98946.06;5075567;27;100798;-34
2022/04/07 02:04:26;;;;;;;7.30;0.65;;;;;;;9.14;84.91;98952.78;5094065;27;96699;-34
2022/04/07 02:06:52;;;;;;;3.85;1.00;;;;;;;9.14;85.05;98949.22;5094328;27;96742;-34
2022/04/07 02:09:17;;;;;;;2.22;0.47;;;;;;;9.18;84.64;98950.69;5093168;27;126553;-33
2022/04/07 02:11:44;;;;;;;1.38;0.45;;;;;;;9.26;84.73;98961.66;5093696;27;97739;-34
2022/04/07 02:14:10;;;;;;;2.78;0.80;;;;;;;9.26;84.60;98947.31;5094080;27;96575;-34
2022/04/07 02:16:35;;;;;;;0.52;0.40;;;;;;;9.21;84.21;98945.00;5075985;27;96792;-34
2022/04/07 02:19:00;;;;;;;4.18;1.42;;;;;;;9.22;84.30;98933.19;5094129;27;97843;-34
2022/04/07 02:21:26;;;;;;;4.68;0.73;;;;;;;9.24;84.40;98936.63;5093645;27;113794;-34
2022/04/07 02:23:52;;;;;;;14.10;1.70;;;;;;;9.23;84.21;98929.53;5093550;27;96421;-34
2022/04/07 02:26:17;;;;;;;4.53;1.00;;;;;;;9.28;84.19;98937.22;5075416;27;96992;-34
2022/04/07 02:28:43;;;;;;;2.15;0.22;;;;;;;9.25;84.63;98930.25;5092961;27;123066;-34
2022/04/07 02:31:09;;;;;;;10.75;0.70;;;;;;;9.24;84.40;98922.28;5075044;27;100715;-34
2022/04/07 02:33:35;;;;;;;9.25;1.50;;;;;;;9.23;84.27;98913.31;5075112;27;96580;-34
2022/04/07 02:36:02;;;;;;;10.45;0.70;;;;;;;9.27;84.23;98913.88;5075199;27;96808;-34
2022/04/07 02:38:27;;;;;;;12.77;1.20;;;;;;;9.23;83.90;98891.69;5075037;27;101918;-34
2022/04/07 02:40:53;;;;;;;9.50;1.70;;;;;;;9.29;83.92;98893.84;5093235;27;117677;-34
2022/04/07 02:43:19;;;;;;;1.45;0.40;;;;;;;9.20;83.78;98867.66;5075066;27;96517;-34
2022/04/07 02:45:44;;;;;;;14.10;1.17;;;;;;;9.26;83.62;98875.22;5093651;27;96768;-34
2022/04/07 02:48:09;;;;;;;1.98;0.68;;;;;;;9.31;83.89;98880.22;5091683;27;128807;-34
2022/04/07 02:50:35;;;;;;;6.38;1.02;;;;;;;9.30;83.85;98878.53;5092601;27;126839;-34
2022/04/07 02:53:00;;;;;;;4.00;1.48;;;;;;;9.31;83.55;98872.97;5092690;27;122334;-34
2022/04/07 02:55:27;;;;;;;8.95;1.48;;;;;;;9.32;83.40;98863.03;5093705;27;96818;-34
2022/04/07 02:57:52;;;;;;;0.45;0.28;;;;;;;9.29;83.32;98853.31;5093417;27;97930;-34
2022/04/07 03:00:18;;;;;;;3.22;0.43;;;;;;;9.33;83.36;98857.47;5093499;27;97365;-34
2022/04/07 03:02:43;;;;;;;6.60;0.93;;;;;;;9.32;83.57;98863.88;5093373;27;96508;-34
2022/04/07 03:05:09;;;;;;;3.92;0.65;;;;;;;9.30;83.26;98836.13;5093691;27;96735;-34
2022/04/07 03:07:35;;;;;;;3.17;1.00;;;;;;;9.29;83.54;98830.88;5093013;27;98645;-34
2022/04/07 03:10:01;;;;;;;5.13;1.15;;;;;;;9.30;83.76;98829.88;5074212;27;101131;-34
2022/04/07 03:12:26;;;;;;;3.17;0.93;;;;;;;9.29;83.81;98842.53;5092412;27;96705;-34
2022/04/07 03:14:52;;;;;;;6.22;0.88;;;;;;;9.23;83.92;98812.50;5093426;27;96735;-33
2022/04/07 03:17:17;;;;;;;4.22;1.13;;;;;;;9.19;84.05;98820.03;5093055;27;99279;-34
2022/04/07 03:19:43;;;;;;;1.25;0.80;;;;;;;9.22;84.04;98827.00;5093344;27;97816;-34
2022/04/07 03:22:08;;;;;;;6.75;0.93;;;;;;;9.14;84.74;98808.78;5093289;27;96537;-33
2022/04/07 03:24:34;;;;;;;3.22;0.80;;;;;;;9.13;84.95;98809.78;5092843;27;97808;-34
2022/04/07 03:26:59;;;;;;;8.23;0.98;;;;;;;9.08;85.10;98779.59;5093073;27;97805;-34
2022/04/07 03:29:26;;;;;;;9.23;1.45;;;;;;;9.09;85.09;98781.31;5093128;27;99645;-34
2022/04/07 03:31:51;;;;;;;4.25;1.02;;;;;;;9.08;85.25;98779.59;5093002;27;96455;-33
2022/04/07 03:34:17;;;;;;;1.27;0.80;;;;;;;9.02;85.59;98761.25;5093143;27;96701;-34
2022/04/07 03:36:42;;;;;;;3.45;0.68;;;;;;;8.98;85.68;98755.25;5092575;27;98008;-34
2022/04/07 03:39:09;;;;;;;2.63;1.02;;;;;;;9.03;85.15;98762.94;5092123;27;118199;-34
2022/04/07 03:41:34;;;;;;;3.80;0.90;;;;;;;9.05;85.71;98750.16;5092892;27;96606;-34
2022/04/07 03:44:00;;;;;;;4.50;0.32;;;;;;;9.03;85.63;98747.59;5092211;27;118357;-34
2022/04/07 03:46:25;;;;;;;3.17;1.02;;;;;;;8.96;85.25;98724.84;5092745;27;99378;-34
2022/04/07 03:48:51;;;;;;;6.55;1.33;;;;;;;9.05;85.22;98736.66;5092447;27;98937;-34
2022/04/07 03:51:19;;;;;;;1.15;0.45;;;;;;;8.98;85.66;98695.00;5092142;27;116162;-34
2022/04/07 03:53:45;;;;;;;0.40;0.30;;;;;;;8.96;86.00;98670.81;5093135;27;96736;-34
2022/04/07 03:56:10;;;;;;;6.72;0.93;;;;;;;9.01;85.54;98687.50;5092919;27;97354;-34
2022/04/07 03:58:37;;;;;;;4.45;0.82;;;;;;;8.95;85.72;98657.50;5073905;27;100791;-34
2022/04/07 04:01:02;;;;;;;3.80;1.27;;;;;;;8.97;85.36;98656.34;5073761;27;96608;-34
2022/04/07 04:03:28;;;;;;;6.50;1.17;;;;;;;9.01;85.19;98668.59;5092648;27;97223;-34
2022/04/07 04:05:53;;;;;;;3.80;1.05;;;;;;;9.04;84.97;98651.25;5092265;27;104564;-34
2022/04/07 04:08:18;;;;;;;7.97;0.93;;;;;;;9.04;84.60;98632.34;5091398;27;127336;-34
2022/04/07 04:10:43;;;;;;;0.32;0.22;;;;;;;9.08;84.33;98629.25;5092777;27;96590;-34
2022/04/07 04:13:09;;;;;;;0.45;0.30;;;;;;;9.12;84.27;98616.28;5092105;27;113401;-34
2022/04/07 04:15:34;;;;;;;3.63;0.82;;;;;;;9.04;84.39;98575.66;5095741;27;108845;-34
2022/04/07 04:17:59;;;;;;;7.13;0.88;;;;;;;9.03;84.23;98587.44;5095490;27;127261;-34
2022/04/07 04:20:25;;;;;;;4.20;0.85;;;;;;;9.00;83.86;98590.41;5095754;27;107861;-34
2022/04/07 04:22:53;;;;;;;6.28;2.17;;;;;;;9.01;84.14;98594.81;5095593;27;96764;-34
2022/04/07 04:25:18;;;;;;;4.43;0.88;;;;;;;8.97;84.11;98572.66;5076623;27;101024;-34
2022/04/07 04:27:43;;;;;;;3.15;1.23;;;;;;;9.00;84.36;98579.63;5095577;27;99135;-34
2022/04/07 04:30:10;;;;;;;1.30;0.40;;;;;;;9.00;84.10;98558.88;5095069;27;121932;-34
2022/04/07 04:32:35;;;;;;;1.20;0.47;;;;;;;9.00;84.26;98558.03;5077170;27;96822;-34
2022/04/07 04:35:01;;;;;;;9.18;1.15;;;;;;;8.98;84.45;98554.59;5095405;27;99827;-34
2022/04/07 04:37:27;;;;;;;1.75;0.30;;;;;;;8.92;84.69;98547.94;5095551;27;97362;-34
2022/04/07 04:39:53;;;;;;;1.00;0.30;;;;;;;8.90;84.94;98547.22;5095953;27;96628;-34
2022/04/07 04:42:19;;;;;;;1.67;0.20;;;;;;;8.91;84.73;98541.69;5077429;27;96840;-34
2022/04/07 04:44:45;;;;;;;1.00;0.30;;;;;;;8.90;84.93;98529.16;5095596;27;97979;-34
2022/04/07 04:47:11;;;;;;;1.42;0.38;;;;;;;8.86;85.31;98519.63;5095562;27;97822;-34
2022/04/07 04:49:40;;;;;;;2.25;0.35;;;;;;;8.82;85.90;98526.31;5095145;27;96610;-34
2022/04/07 04:52:05;;;;;;;0.28;0.25;;;;;;;8.79;86.07;98521.19;5076710;27;96918;-34
2022/04/07 04:54:32;;;;;;;1.10;0.47;;;;;;;8.67;86.85;98508.81;5095341;27;97454;-34
2022/04/07 04:56:58;;;;;;;1.65;0.68;;;;;;;8.69;86.07;98491.50;5076719;27;100701;-34
2022/04/07 04:59:23;;;;;;;2.53;0.95;;;;;;;8.66;86.38;98474.75;5094447;27;122230;-34
2022/04/07 05:01:48;;;;;;;3.17;0.98;;;;;;;8.67;86.68;98471.88;5094896;27;120196;-34
2022/04/07 05:04:13;;;;;;;3.67;0.55;;;;;;;8.69;86.65;98466.34;5094537;27;113652;-34
2022/04/07 05:06:39;;;;;;;1.73;0.50;;;;;;;8.68;87.24;98488.97;5093989;27;128869;-34
2022/04/07 05:09:04;;;;;;;0.35;0.20;;;;;;;8.63;88.06;98475.88;5094719;27;114380;-34
2022/04/07 05:11:29;;;;;;;4.80;0.85;;;;;;;8.68;87.11;98475.47;5094717;27;96736;-34
2022/04/07 05:13:55;;;;;;;0.52;0.22;;;;;;;8.67;87.41;98474.59;5094736;27;97813;-34
2022/04/07 05:16:20;;;;;;;6.35;0.90;;;;;;;8.67;87.12;98469.19;5094530;27;116695;-34
2022/04/07 05:18:47;;;;;;;3.53;0.20;;;;;;;8.63;87.58;98459.69;5094234;27;121826;-34
2022/04/07 05:21:14;;;;;;;0.63;0.32;;;;;;;8.61;88.47;98447.34;5076267;27;96725;-34
2022/04/07 05:23:40;;;;;;;1.95;1.20;;;;;;;8.62;87.68;98449.03;5094772;27;99200;-34
2022/04/07 05:26:05;;;;;;;0.95;0.25;;;;;;;8.63;88.34;98457.00;5093564;27;97777;-34
2022/04/07 05:28:30;;;;;;;4.30;1.08;;;;;;;8.59;88.20;98446.63;5093955;27;122759;-34
2022/04/07 05:30:56;;;;;;;0.75;0.30;;;;;;;8.57;88.40;98421.63;5094589;27;121680;-33
2022/04/07 05:33:21;;;;;;;0.77;0.40;;;;;;;8.57;88.40;98435.13;5094846;27;97400;-34
2022/04/07 05:35:47;;;;;;;0.47;0.22;;;;;;;8.58;88.70;98431.41;5094750;27;97661;-34
2022/04/07 05:38:12;;;;;;;0.10;0.10;;;;;;;8.58;88.81;98415.22;5094231;27;96671;-34
2022/04/07 05:40:37;;;;;;;1.10;0.50;;;;;;;8.63;88.28;98442.66;5093806;27;122000;-34
2022/04/07 05:43:04;;;;;;;0.85;0.60;;;;;;;8.61;88.67;98439.25;5093566;27;126734;-34
2022/04/07 05:45:30;;;;;;;3.45;0.47;;;;;;;8.56;88.60;98501.72;5075810;27;100827;-34
2022/04/07 05:47:55;;;;;;;1.17;0.70;;;;;;;8.57;89.41;98546.59;5094501;27;96627;-34
2022/04/07 05:50:20;;;;;;;1.15;0.35;;;;;;;8.24;84.74;98551.28;5093417;27;121597;-34
2022/04/07 05:52:46;;;;;;;0.08;0.00;;;;;;;8.11;85.20;98549.84;5094063;27;99677;-34
2022/04/07 05:55:11;;;;;;;0.15;0.00;;;;;;;7.90;84.23;98539.09;5094977;27;97342;-34
2022/04/07 05:57:36;;;;;;;1.75;0.40;;;;;;;7.78;85.60;98538.31;5094434;27;96433;-34
2022/04/07 06:00:04;;;;;;;0.00;0.00;;;;;;;7.74;85.77;98536.88;5093628;27;114143;-34
2022/04/07 06:02:29;;;;;;;2.40;0.10;;;;;;;7.63;85.51;98540.53;5093851;27;97868;-34
2022/04/07 06:04:54;;;;;;;1.83;0.63;;;;;;;7.58;86.08;98549.00;5092461;27;128504;-34
2022/04/07 06:07:19;;;;;;;0.90;0.17;;;;;;;7.49;85.68;98557.88;5093673;27;110455;-34
2022/04/07 06:09:45;;;;;;;1.08;0.45;;;;;;;7.40;85.67;98542.50;5093669;27;115170;-34
2022/04/07 06:12:10;;;;;;;2.42;0.25;;;;;;;7.47;86.10;98534.75;5093523;27;99595;-34
2022/04/07 06:14:35;;;;;;;0.32;0.20;;;;;;;7.45;86.43;98540.25;5094109;27;97900;-34
2022/04/07 06:17:02;;;;;;;0.35;0.15;;;;;;;7.36;86.00;98519.50;5094230;27;97256;-34
2022/04/07 06:19:27;;;;;;;0.35;0.30;;;;;;;7.35;85.91;98528.56;5094117;27;96876;-34
2022/04/07 06:21:52;;;;;;;0.47;0.25;;;;;;;7.32;85.42;98528.84;5094067;27;97405;-34
2022/04/07 06:24:17;;;;;;;0.15;0.05;;;;;;;7.30;85.71;98504.72;5091243;27;127219;-34
2022/04/07 06:26:43;;;;;;;0.85;0.10;;;;;;;7.20;85.53;98495.75;5092071;27;97013;-34
2022/04/07 06:29:08;;;;;;;0.38;0.17;;;;;;;7.20;85.72;98490.34;5090842;27;115728;-34
2022/04/07 06:31:34;;;;;;;0.05;0.03;;;;;;;7.15;85.59;98493.44;5093603;27;117341;-34
2022/04/07 06:34:00;;;;;;;0.25;0.25;;;;;;;7.11;85.16;98502.75;5074095;27;129683;-34
2022/04/07 06:36:26;;;;;;;0.90;0.20;;;;;;;7.07;85.54;98493.22;5093424;27;96492;-34
2022/04/07 06:38:51;;;;;;;0.00;0.00;;;;;;;7.10;85.70;98501.03;5075371;27;96859;-34
2022/04/07 06:41:16;;;;;;;0.80;0.30;;;;;;;7.06;85.68;98502.31;5091986;27;124688;-34
2022/04/07 06:43:41;;;;;;;0.40;0.10;;;;;;;7.11;85.74;98508.16;5091472;27;121891;-34
2022/04/07 06:46:07;;;;;;;0.55;0.10;;;;;;;7.07;86.14;98501.31;5092255;27;105286;-34
2022/04/07 06:48:32;;;;;;;0.00;0.00;;;;;;;7.01;85.73;98496.47;5093485;27;96760;-34
2022/04/07 06:50:57;;;;;;;0.00;0.00;;;;;;;6.98;85.22;98488.63;5091073;27;126086;-34
2022/04/07 06:53:23;;;;;;;1.13;0.22;;;;;;;6.95;85.38;98475.44;5092441;27;126842;-34
2022/04/07 06:55:48;;;;;;;0.00;0.00;;;;;;;6.88;85.15;98463.47;5075055;27;96572;-34
2022/04/07 06:58:13;;;;;;;1.45;0.47;;;;;;;6.88;85.29;98445.50;5074418;27;122178;-34
2022/04/07 07:00:43;;;;;;;0.93;0.22;;;;;;;6.88;85.42;98445.50;5093555;27;97850;-34
2022/04/07 07:03:12;;;;;;;0.25;0.13;;;;;;;6.90;86.10;98442.69;5074438;27;100985;-34
2022/04/07 07:05:37;;;;;;;0.10;0.10;;;;;;;6.92;85.77;98443.41;5074684;27;96716;-34
2022/04/07 07:08:17;;;;;;;0.50;0.28;;;;;;;6.97;85.47;98441.19;5093827;27;96705;-34
2022/04/07 07:10:45;;;;;;;0.13;0.10;;;;;;;6.83;85.41;98406.53;5073247;27;100850;-34
2022/04/07 07:13:12;;;;;;;0.22;0.20;;;;;;;6.92;85.43;98416.50;5073500;27;100971;-34
2022/04/07 07:15:38;;;;;;;1.17;0.10;;;;;;;6.90;85.49;98413.94;5074227;27;97050;-34
2022/04/07 07:18:04;;;;;;;0.00;0.00;;;;;;;6.99;85.66;98420.38;5093270;27;96798;-33
2022/04/07 07:20:29;;;;;;;0.20;0.15;;;;;;;6.98;85.88;98421.34;5093020;27;99486;-34
2022/04/07 07:22:54;;;;;;;0.65;0.30;;;;;;;6.95;85.65;98394.69;5093282;27;98878;-34
2022/04/07 07:25:19;;;;;;;0.68;0.15;;;;;;;6.99;nan;98388.06;5073754;27;122216;-34
2022/04/07 07:27:46;;;;;;;0.50;0.38;;;;;;;6.94;85.30;98363.41;5091925;27;123336;-34
2022/04/07 07:30:15;;;;;;;0.10;0.10;;;;;;;6.92;85.52;98357.31;5092745;27;99560;-34
2022/04/07 07:32:42;;;;;;;0.90;0.52;;;;;;;6.82;85.67;98330.34;5093122;27;99398;-34
2022/04/07 07:35:08;;;;;;;0.45;0.43;;;;;;;6.86;85.99;98347.06;5074468;27;96583;-34
2022/04/07 07:37:35;;;;;;;2.05;0.38;;;;;;;6.93;86.08;98353.63;5092884;27;96917;-34
2022/04/07 07:40:21;;;;;;;2.38;1.30;;;;;;;7.01;86.31;98370.81;5092207;27;98920;-34
2022/04/07 07:42:47;;;;;;;3.47;1.38;;;;;;;7.01;86.19;98353.81;5073923;27;101106;-34
2022/04/07 07:45:14;;;;;;;2.97;1.15;;;;;;;7.06;85.94;98348.88;5074332;27;96546;-34
2022/04/07 07:47:39;;;;;;;1.35;0.95;;;;;;;7.19;86.52;98354.88;5093236;27;96760;-34
2022/04/07 07:50:05;;;;;;;8.68;0.70;;;;;;;7.29;86.17;98341.44;5095838;27;98825;-33
2022/04/07 07:52:30;;;;;;;0.20;0.20;;;;;;;7.35;85.70;98337.38;5096392;27;97348;-34
2022/04/07 07:54:56;;;;;;;0.25;0.20;;;;;;;7.45;85.51;98357.94;5095670;27;113888;-34
2022/04/07 07:57:21;;;;;;;0.10;0.10;;;;;;;7.58;85.62;98359.56;5095758;27;122323;-34
2022/04/07 07:59:46;;;;;;;0.30;0.20;;;;;;;7.62;85.36;98345.66;5096218;27;97398;-34
2022/04/07 08:02:12;;;;;;;0.15;0.10;;;;;;;7.76;85.41;98352.50;5095380;27;125419;-34
2022/04/07 08:04:37;;;;;;;0.10;0.10;;;;;;;7.90;85.24;98350.44;5095469;27;96555;-34
2022/04/07 08:07:03;;;;;;;0.05;0.00;;;;;;;8.16;85.15;98334.56;5096131;27;99603;-33
2022/04/07 08:09:28;;;;;;;3.60;0.20;;;;;;;8.50;84.34;98346.63;5096006;27;97453;-34
2022/04/07 08:11:54;;;;;;;0.22;0.22;;;;;;;8.69;83.38;98351.16;5095536;27;99374;-34
2022/04/07 08:14:19;;;;;;;0.52;0.20;;;;;;;8.56;82.60;98337.13;5096076;27;96723;-33
2022/04/07 08:16:44;;;;;;;4.95;0.63;;;;;;;8.88;83.13;98350.28;5095862;27;96760;-34
2022/04/07 08:19:10;;;;;;;2.85;0.10;;;;;;;9.22;83.57;98352.44;5095312;27;126816;-33
2022/04/07 08:21:36;;;;;;;0.35;0.20;;;;;;;9.52;81.15;98361.31;5096238;27;97946;-33
2022/04/07 08:24:02;;;;;;;2.63;0.10;;;;;;;9.70;81.13;98364.91;5077359;27;96492;-34
2022/04/07 08:26:27;;;;;;;1.10;0.70;;;;;;;9.79;80.67;98369.38;5095728;27;96613;-34
2022/04/07 08:28:53;;;;;;;0.90;0.38;;;;;;;9.76;80.80;98360.75;5094294;27;122998;-33
2022/04/07 08:31:18;;;;;;;4.13;0.20;;;;;;;9.64;80.75;98362.81;5076735;27;116293;-34
2022/04/07 08:33:43;;;;;;;1.45;0.22;;;;;;;9.48;81.00;98359.88;5095760;27;96450;-34
2022/04/07 08:36:09;;;;;;;1.85;0.43;;;;;;;9.53;81.33;98362.97;5095048;27;121256;-34
2022/04/07 08:38:34;;;;;;;1.33;0.43;;;;;;;9.42;81.04;98349.69;5076872;27;99366;-33
2022/04/07 08:41:00;;;;;;;0.30;0.10;;;;;;;9.27;80.58;98360.97;5095657;27;97403;-34
2022/04/07 08:43:25;;;;;;;0.28;0.28;;;;;;;9.34;80.75;98367.50;5059892;27;97331;-33
2022/04/07 08:45:51;;;;;;;0.00;0.00;;;;;;;9.44;81.12;98358.47;5077274;27;96763;-33
2022/04/07 08:48:16;;;;;;;4.15;0.50;;;;;;;9.66;80.44;98376.19;5095414;27;98068;-33
2022/04/07 08:50:43;;;;;;;5.55;0.80;;;;;;;9.55;80.03;98363.69;5095615;27;97837;-33
2022/04/07 08:53:10;;;;;;;2.97;0.20;;;;;;;9.54;80.09;98360.16;5076133;27;96743;-33
2022/04/07 08:55:37;;;;;;;0.22;0.13;;;;;;;9.60;80.01;98360.53;5076827;27;96767;-34
2022/04/07 08:58:02;;;;;;;2.13;0.25;;;;;;;9.75;79.25;98369.88;5076704;27;100823;-33
2022/04/07 09:00:28;;;;;;;1.25;0.30;;;;;;;9.66;78.65;98358.09;5095168;27;97812;-33
2022/04/07 09:02:54;;;;;;;8.10;0.63;;;;;;;9.73;78.53;98372.72;5095419;27;96415;-33
2022/04/07 09:05:23;;;;;;;0.68;0.20;;;;;;;9.69;78.07;98375.88;5076534;27;97056;-34
2022/04/07 09:07:50;;;;;;;1.95;0.50;;;;;;;9.82;77.72;98370.09;5094920;27;99252;-33
2022/04/07 09:10:19;;;;;;;1.38;0.60;;;;;;;10.03;77.08;98395.00;5076751;27;101188;-33
2022/04/07 09:12:44;;;;;;;1.92;0.52;;;;;;;9.95;75.98;98389.53;5076251;27;96651;-34
2022/04/07 09:15:12;;;;;;;4.75;0.40;;;;;;;9.93;75.83;98384.25;5076692;27;96902;-33
2022/04/07 09:17:52;;;;;;;1.98;0.50;;;;;;;10.00;75.64;98389.91;5075909;27;101332;-34
2022/04/07 09:20:17;;;;;;;0.52;0.40;;;;;;;10.29;74.27;98391.63;5076288;27;100899;-33
2022/04/07 09:22:43;;;;;;;0.88;0.30;;;;;;;10.19;73.90;98383.53;5095041;27;96795;-34
2022/04/07 09:25:11;;;;;;;0.90;0.40;;;;;;;10.21;72.42;98397.75;5094525;27;107128;-33
2022/04/07 09:27:40;;;;;;;0.20;0.20;;;;;;;10.04;72.30;98395.88;5059067;27;100918;-33
2022/04/07 09:30:08;;;;;;;3.05;0.50;;;;;;;10.19;73.39;98419.53;5076209;27;101096;-33
2022/04/07 09:32:41;;;;;;;1.85;0.35;;;;;;;10.39;73.67;98416.75;5094980;27;96546;-34
2022/04/07 09:35:07;;;;;;;1.48;0.73;;;;;;;10.26;72.32;98419.78;5076679;27;96686;-34
2022/04/07 09:37:34;;;;;;;2.85;0.60;;;;;;;10.09;71.63;98397.13;5094399;27;97758;-33
2022/04/07 09:40:09;;;;;;;0.55;0.15;;;;;;;9.93;72.92;98415.88;5075889;27;100667;-34
2022/04/07 09:42:35;;;;;;;2.47;0.30;;;;;;;9.88;71.86;98424.44;5075529;27;96905;-34
2022/04/07 09:45:02;;;;;;;6.30;1.52;;;;;;;9.69;71.48;98408.31;5094606;27;96743;-34
2022/04/07 09:47:45;;;;;;;1.33;0.55;;;;;;;9.65;71.63;98431.22;5094416;27;99316;-34
2022/04/07 09:50:29;;;;;;;0.82;0.17;;;;;;;9.53;72.04;98446.75;5075653;27;101018;-34
2022/04/07 09:53:03;;;;;;;5.38;0.95;;;;;;;9.47;71.92;98439.25;5076124;27;96712;-34
2022/04/07 09:55:40;;;;;;;1.85;0.63;;;;;;;9.45;72.21;98436.69;5075984;27;96649;-34
2022/04/07 09:58:07;;;;;;;1.35;0.73;;;;;;;9.34;72.15;98437.72;5094257;27;99529;-34
2022/04/07 10:00:33;;;;;;;1.27;0.45;;;;;;;9.34;71.84;98450.38;5094611;27;99046;-34
2022/04/07 10:02:59;;;;;;;5.43;0.93;;;;;;;9.33;71.41;98445.97;5075840;27;96598;-34
2022/04/07 10:05:24;;;;;;;2.20;0.63;;;;;;;9.34;72.48;98455.78;5093974;27;96955;-33
2022/04/07 10:07:50;;;;;;;1.38;0.40;;;;;;;9.36;73.01;98457.31;5075134;27;100774;-34
2022/04/07 10:10:19;;;;;;;1.67;0.40;;;;;;;9.32;72.03;98466.75;5075513;27;101179;-33
2022/04/07 10:12:45;;;;;;;1.05;0.47;;;;;;;9.32;72.23;98472.16;5074359;27;96800;-34
2022/04/07 10:15:11;;;;;;;6.57;0.95;;;;;;;9.37;72.50;98452.81;5094183;27;96695;-34
2022/04/07 10:17:37;;;;;;;3.05;0.85;;;;;;;9.28;71.91;98449.13;5094077;27;97852;-33
2022/04/07 10:20:09;;;;;;;2.83;0.77;;;;;;;9.30;70.25;98479.53;5075295;27;99805;-34
2022/04/07 10:22:57;;;;;;;3.40;0.77;;;;;;;9.34;70.81;98483.66;5075531;27;97489;-33
2022/04/07 10:25:24;;;;;;;4.35;1.15;;;;;;;9.35;71.11;98471.00;5075589;27;96796;-34
2022/04/07 10:27:53;;;;;;;3.60;0.77;;;;;;;9.33;70.21;98468.44;5093843;27;97922;-34
2022/04/07 10:30:19;;;;;;;5.35;1.98;;;;;;;9.33;69.47;98460.31;5075342;27;100998;-34
2022/04/07 10:32:58;;;;;;;0.40;0.20;;;;;;;9.33;70.35;98465.72;5093242;27;96542;-34
2022/04/07 10:35:37;;;;;;;5.03;0.75;;;;;;;9.33;70.86;98465.72;5093781;27;96598;-34
2022/04/07 10:38:06;;;;;;;1.80;0.45;;;;;;;9.35;70.00;98461.03;5075022;27;100875;-34
2022/04/07 10:40:34;;;;;;;1.38;0.50;;;;;;;9.52;69.24;98472.09;5075107;27;101143;-34
2022/04/07 10:43:18;;;;;;;0.68;0.30;;;;;;;9.67;69.57;98470.59;5093609;27;96609;-34
2022/04/07 10:45:46;;;;;;;3.38;0.88;;;;;;;9.81;69.65;98485.50;5093711;27;96585;-34
2022/04/07 10:48:22;;;;;;;5.78;0.90;;;;;;;9.76;68.61;98458.91;5074818;27;100725;-34
2022/04/07 10:50:52;;;;;;;7.53;1.33;;;;;;;9.83;68.67;98490.78;5075197;27;101198;-34
2022/04/07 10:53:21;;;;;;;3.47;0.70;;;;;;;9.97;68.32;98483.03;5074844;27;96709;-34
2022/04/07 10:55:58;;;;;;;2.55;0.88;;;;;;;9.95;67.85;98512.06;5075082;27;96831;-34
2022/04/07 10:58:56;;;;;;;2.15;0.50;;;;;;;10.04;67.43;98474.31;5074320;27;100817;-34
2022/04/07 11:01:33;;;;;;;4.70;1.17;;;;;;;10.07;66.37;98503.78;5054563;27;101233;-34
2022/04/07 11:04:25;;;;;;;5.20;1.17;;;;;;;10.43;67.17;98499.31;5093231;27;96657;-34
2022/04/07 11:07:15;;;;;;;;;;;;;;;10.43;66.27;98507.44;5093969;27;96592;-34
2022/04/07 11:10:11;;;;;;;3.53;1.08;;;;;;;10.28;66.79;98500.81;5074744;27;100656;-34
2022/04/07 11:12:59;;;;;;;4.93;0.98;;;;;;;10.21;66.37;98498.69;5074220;27;100809;-34
2022/04/07 11:15:30;;;;;;;1.52;0.95;;;;;;;10.32;66.64;98515.75;5093233;27;96675;-34
2022/04/07 11:18:13;;;;;;;6.60;0.95;;;;;;;10.31;66.33;98492.44;5093742;27;96754;-34
2022/04/07 11:21:00;;;;;;;3.10;0.88;;;;;;;10.13;66.87;98498.63;5057475;27;101280;-34
2022/04/07 11:23:55;;;;;;;1.77;0.70;;;;;;;10.31;65.66;98504.09;5076733;27;101427;-34
2022/04/07 11:26:25;;;;;;;4.00;0.73;;;;;;;10.80;65.31;98501.09;5096370;27;96558;-34
2022/04/07 11:29:03;;;;;;;3.13;1.25;;;;;;;10.81;64.75;98535.28;5078126;27;97388;-34
2022/04/07 11:31:48;;;;;;;4.20;0.77;;;;;;;10.68;63.68;98505.00;5096355;27;106872;-34
2022/04/07 11:34:36;;;;;;;5.20;0.80;;;;;;;10.71;65.42;98520.97;5078076;27;100140;-34
2022/04/07 11:37:19;;;;;;;6.03;1.40;;;;;;;10.50;63.25;98507.69;5096969;27;96391;-34
2022/04/07 11:39:47;;;;;;;4.32;1.00;;;;;;;10.60;64.60;98530.13;5096596;27;96679;-33
2022/04/07 11:42:14;;;;;;;5.47;0.77;;;;;;;10.54;64.33;98534.31;5077896;27;100807;-34